Time;durP1;ratioP1;P1;durP2;ratioP2;P2;SDS_P1;SDS_P2;PMS_P1;PMS_P2;Temp;Humidity;BMP_temperature;BMP_pressure;BME280_temperature;BME280_humidity;BME280_pressure;Samples;Min_cycle;Max_cycle;Signal;HPM_P1;HPM_P2
2023/10/18 00:01:06;;;;;;;2.10;1.87;;;;;;;12.97;100.00;99723.25;5111533;27;20195;-64
2023/10/18 00:03:36;;;;;;;1.90;1.83;;;;;;;12.94;100.00;99718.22;5110642;28;20615;-64
2023/10/18 00:06:11;;;;;;;5.37;1.93;;;;;;;12.90;100.00;99711.50;5099327;27;20191;-64
2023/10/18 00:08:39;;;;;;;1.80;1.40;;;;;;;13.02;100.00;99735.06;5110427;28;20214;-64
2023/10/18 00:11:06;;;;;;;2.40;1.37;;;;;;;13.02;100.00;99729.91;5111241;28;20199;-64
2023/10/18 00:13:34;;;;;;;1.70;1.60;;;;;;;13.04;100.00;99741.03;5111041;28;20712;-64
2023/10/18 00:16:02;;;;;;;0.90;0.90;;;;;;;13.04;100.00;99737.59;5098891;28;20317;-64
2023/10/18 00:18:29;;;;;;;2.70;1.70;;;;;;;12.93;100.00;99716.53;5107319;28;20658;-64
2023/10/18 00:21:00;;;;;;;1.37;1.37;;;;;;;13.08;100.00;99727.19;5108728;28;20202;-64
2023/10/18 00:23:28;;;;;;;1.30;1.30;;;;;;;13.06;100.00;99710.91;5090757;28;20248;-64
2023/10/18 00:25:55;;;;;;;1.70;1.60;;;;;;;13.10;100.00;99716.81;5090071;28;20210;-64
2023/10/18 00:28:22;;;;;;;2.30;2.20;;;;;;;13.08;100.00;99706.59;5094613;28;20735;-64
2023/10/18 00:30:52;;;;;;;1.50;1.50;;;;;;;13.05;100.00;99703.25;5110640;28;20257;-64
2023/10/18 00:33:19;;;;;;;1.90;1.80;;;;;;;13.03;100.00;99694.72;5102199;28;20201;-64
2023/10/18 00:35:47;;;;;;;1.83;1.73;;;;;;;13.02;100.00;99696.47;5097706;28;20199;-64
2023/10/18 00:38:18;;;;;;;2.50;2.30;;;;;;;12.88;100.00;99678.13;5110726;28;20206;-64
2023/10/18 00:40:49;;;;;;;1.60;1.50;;;;;;;13.00;100.00;99693.13;5111064;28;20239;-64
2023/10/18 00:43:19;;;;;;;1.53;1.47;;;;;;;13.00;100.00;99692.28;5110144;28;20199;-65
2023/10/18 00:45:50;;;;;;;1.83;1.73;;;;;;;12.95;100.00;99692.44;5108438;28;20208;-65
2023/10/18 00:48:23;;;;;;;1.63;1.57;;;;;;;12.96;100.00;99690.69;5109494;28;20289;-65
2023/10/18 00:50:52;;;;;;;2.67;2.50;;;;;;;12.94;100.00;99692.50;5110663;28;20202;-65
2023/10/18 00:53:22;;;;;;;3.00;1.43;;;;;;;12.88;100.00;99692.72;5100711;28;20696;-65
2023/10/18 00:55:52;;;;;;;1.90;1.80;;;;;;;12.85;100.00;99695.41;5107882;28;20198;-65
2023/10/18 00:58:20;;;;;;;2.60;2.50;;;;;;;12.84;100.00;99691.13;5110716;28;20199;-65
2023/10/18 01:00:48;;;;;;;1.10;1.10;;;;;;;12.82;100.00;99693.78;5110586;28;20585;-65
2023/10/18 01:03:28;;;;;;;2.40;2.30;;;;;;;12.78;100.00;99691.34;5110530;28;20297;-65
2023/10/18 01:06:05;;;;;;;1.43;1.43;;;;;;;12.80;100.00;99698.09;5102680;28;20199;-65
2023/10/18 01:08:32;;;;;;;1.33;1.33;;;;;;;12.79;100.00;99693.88;5093624;28;20637;-65
2023/10/18 01:11:04;;;;;;;2.63;2.53;;;;;;;12.78;100.00;99686.19;5110340;28;20195;-65
2023/10/18 01:13:31;;;;;;;2.07;2.00;;;;;;;12.78;100.00;99691.34;5110500;28;20236;-65
2023/10/18 01:15:59;;;;;;;3.40;1.80;;;;;;;12.78;100.00;99693.91;5110072;28;20701;-65
2023/10/18 01:18:26;;;;;;;3.20;1.63;;;;;;;12.80;100.00;99689.53;5110506;28;20199;-65
2023/10/18 01:20:53;;;;;;;2.10;2.00;;;;;;;12.80;100.00;99694.69;5098196;28;20214;-65
2023/10/18 01:23:21;;;;;;;2.53;2.33;;;;;;;12.84;100.00;99696.28;5090033;28;20579;-65
2023/10/18 01:25:49;;;;;;;1.67;1.57;;;;;;;12.84;100.00;99691.97;5090581;28;20195;-65
2023/10/18 01:28:16;;;;;;;1.93;1.83;;;;;;;12.84;100.00;99688.56;5108846;28;20678;-65
2023/10/18 01:30:43;;;;;;;2.10;2.00;;;;;;;12.88;100.00;99685.84;5110405;28;20702;-65
2023/10/18 01:33:13;;;;;;;7.03;2.20;;;;;;;12.90;100.00;99685.75;5110103;28;20223;-65
2023/10/18 01:35:46;;;;;;;2.10;2.00;;;;;;;12.93;100.00;99688.22;5108065;28;20685;-65
2023/10/18 01:38:19;;;;;;;1.50;1.50;;;;;;;12.95;100.00;99691.59;5113801;28;20243;-65
2023/10/18 01:40:53;;;;;;;2.00;1.70;;;;;;;12.95;100.00;99689.88;5109652;28;20716;-65
2023/10/18 01:43:20;;;;;;;1.40;1.40;;;;;;;12.98;100.00;99694.06;5113575;28;20240;-65
2023/10/18 01:45:49;;;;;;;2.13;2.03;;;;;;;12.98;100.00;99694.91;5114538;28;20688;-65
2023/10/18 01:48:18;;;;;;;1.50;1.40;;;;;;;12.97;100.00;99695.81;5113810;27;20256;-65
2023/10/18 01:50:47;;;;;;;1.80;1.70;;;;;;;12.97;100.00;99682.94;5111341;27;20207;-65
2023/10/18 01:53:18;;;;;;;2.40;2.30;;;;;;;12.96;100.00;99690.69;5093162;28;20206;-65
2023/10/18 01:55:51;;;;;;;2.03;1.93;;;;;;;12.94;100.00;99687.34;5093314;28;20316;-65
2023/10/18 01:58:23;;;;;;;1.53;1.53;;;;;;;12.94;100.00;99685.63;5093086;28;20203;-65
2023/10/18 02:00:52;;;;;;;1.80;1.70;;;;;;;12.96;100.00;99685.53;5113687;28;20205;-65
2023/10/18 02:03:19;;;;;;;1.27;1.27;;;;;;;12.98;100.00;99688.94;5116420;27;20205;-65
2023/10/18 02:05:47;;;;;;;2.00;1.90;;;;;;;12.97;100.00;99679.50;5093257;28;20199;-65
2023/10/18 02:08:13;;;;;;;2.70;2.60;;;;;;;13.00;100.00;99674.25;5093173;28;20676;-65
2023/10/18 02:10:42;;;;;;;1.57;1.43;;;;;;;13.02;100.00;99680.22;5112110;28;20620;-65
2023/10/18 02:13:10;;;;;;;1.63;1.57;;;;;;;13.03;100.00;99692.16;5113495;28;20199;-65
2023/10/18 02:15:39;;;;;;;2.00;1.90;;;;;;;13.04;100.00;99693.84;5097105;27;20239;-65
2023/10/18 02:18:07;;;;;;;2.40;2.30;;;;;;;13.02;100.00;99690.50;5101685;28;20198;-65
2023/10/18 02:20:35;;;;;;;1.77;1.67;;;;;;;13.03;100.00;99694.72;5110847;28;20202;-66
2023/10/18 02:23:10;;;;;;;2.23;2.13;;;;;;;13.02;100.00;99705.94;5092653;28;20197;-65
2023/10/18 02:25:39;;;;;;;1.93;1.83;;;;;;;12.97;100.00;99692.38;5093911;27;20637;-65
2023/10/18 02:28:08;;;;;;;1.90;1.80;;;;;;;12.84;100.00;99670.53;5092800;28;20200;-65
2023/10/18 02:30:38;;;;;;;2.30;2.20;;;;;;;12.98;100.00;99702.63;5110895;28;20786;-66
2023/10/18 02:33:06;;;;;;;1.43;1.43;;;;;;;13.01;100.00;99694.81;5112859;27;20623;-65
2023/10/18 02:35:34;;;;;;;1.93;1.87;;;;;;;12.99;100.00;99700.88;5110890;27;20199;-65
2023/10/18 02:38:08;;;;;;;1.90;1.60;;;;;;;12.99;100.00;99703.44;5112819;28;20190;-65
2023/10/18 02:40:38;;;;;;;1.90;1.80;;;;;;;12.98;100.00;99696.66;5112853;28;20194;-65
2023/10/18 02:43:11;;;;;;;2.20;2.07;;;;;;;13.00;100.00;99694.84;5108376;27;20227;-65
2023/10/18 02:45:40;;;;;;;1.40;1.30;;;;;;;12.96;100.00;99693.28;5099245;28;20199;-65
2023/10/18 02:48:13;;;;;;;1.47;1.43;;;;;;;12.98;100.00;99691.50;5111264;28;20579;-65
2023/10/18 02:50:40;;;;;;;2.33;2.23;;;;;;;12.98;100.00;99689.78;5113447;27;20694;-65
2023/10/18 02:53:07;;;;;;;1.87;1.77;;;;;;;12.98;100.00;99687.19;5096957;27;20195;-65
2023/10/18 02:55:38;;;;;;;2.83;2.33;;;;;;;12.98;100.00;99687.19;5092610;28;20730;-65
2023/10/18 02:58:06;;;;;;;3.43;1.80;;;;;;;13.00;100.00;99687.13;5092983;28;20192;-65
2023/10/18 03:00:42;;;;;;;1.70;1.60;;;;;;;13.00;100.00;99689.69;5109457;28;20214;-65
2023/10/18 03:03:09;;;;;;;4.53;2.30;;;;;;;13.00;100.00;99692.28;5112179;28;21789;-65
2023/10/18 03:05:41;;;;;;;2.47;2.37;;;;;;;13.00;100.00;99687.97;5104188;27;20290;-65
2023/10/18 03:08:10;;;;;;;3.07;1.57;;;;;;;12.97;100.00;99694.97;5112251;28;20283;-65
2023/10/18 03:10:43;;;;;;;1.40;1.30;;;;;;;12.82;100.00;99672.34;5112363;28;20270;-65
2023/10/18 03:13:13;;;;;;;3.87;2.27;;;;;;;12.98;100.00;99688.94;5112242;27;20194;-65
2023/10/18 03:16:03;;;;;;;2.07;2.00;;;;;;;12.98;100.00;99688.94;5095906;28;20227;-65
2023/10/18 03:18:30;;;;;;;1.53;1.43;;;;;;;12.94;100.00;99688.19;5098497;27;20199;-65
2023/10/18 03:20:57;;;;;;;2.50;2.30;;;;;;;12.95;100.00;99689.03;5111869;28;20218;-65
2023/10/18 03:23:26;;;;;;;4.43;2.23;;;;;;;12.93;100.00;99686.50;5110515;28;20194;-65
2023/10/18 03:26:01;;;;;;;3.00;2.80;;;;;;;12.92;100.00;99684.00;5111832;28;20199;-65
2023/10/18 03:28:34;;;;;;;1.93;1.83;;;;;;;12.93;100.00;99677.94;5110606;28;20198;-65
2023/10/18 03:31:20;;;;;;;1.70;1.70;;;;;;;12.90;100.00;99676.31;5111290;27;20318;-65
2023/10/18 03:33:48;;;;;;;2.33;2.23;;;;;;;12.91;100.00;99683.16;5104858;27;20195;-65
2023/10/18 03:36:20;;;;;;;2.30;2.10;;;;;;;12.94;100.00;99682.19;5091161;28;20200;-65
2023/10/18 03:38:53;;;;;;;3.20;2.90;;;;;;;12.94;100.00;99677.06;5092457;28;20203;-65
2023/10/18 03:41:22;;;;;;;2.50;2.30;;;;;;;12.94;100.00;99677.06;5098738;27;20298;-65
2023/10/18 03:43:49;;;;;;;9.57;3.00;;;;;;;12.97;100.00;99676.94;5091155;28;20207;-65
2023/10/18 03:46:19;;;;;;;1.80;1.73;;;;;;;12.96;100.00;99667.53;5090973;28;20202;-65
2023/10/18 03:48:54;;;;;;;2.83;2.70;;;;;;;12.98;100.00;99671.75;5110243;28;20204;-65
2023/10/18 03:51:23;;;;;;;2.37;2.23;;;;;;;12.98;100.00;99669.19;5111472;27;20245;-65
2023/10/18 03:53:52;;;;;;;2.10;2.03;;;;;;;12.99;100.00;99670.84;5094725;28;20583;-65
2023/10/18 03:56:21;;;;;;;1.60;1.50;;;;;;;13.00;100.00;99666.53;5090779;28;20203;-65
2023/10/18 03:59:00;;;;;;;2.63;2.47;;;;;;;13.00;100.00;99666.53;5096078;28;20203;-65
2023/10/18 04:01:35;;;;;;;2.17;2.07;;;;;;;13.01;100.00;99670.81;5111416;28;20642;-65
2023/10/18 04:04:05;;;;;;;2.03;1.93;;;;;;;13.00;100.00;99672.53;5111492;27;20191;-65
2023/10/18 04:06:35;;;;;;;1.50;1.50;;;;;;;13.02;100.00;99685.34;5111149;28;20210;-65
2023/10/18 04:09:13;;;;;;;2.43;2.33;;;;;;;13.01;100.00;99679.38;5100778;28;20188;-65
2023/10/18 04:11:40;;;;;;;1.90;1.80;;;;;;;13.02;100.00;99672.50;5109739;28;20257;-65
2023/10/18 04:14:09;;;;;;;2.17;2.07;;;;;;;13.02;100.00;99659.63;5111291;28;20574;-66
2023/10/18 04:16:38;;;;;;;1.67;1.57;;;;;;;13.04;100.00;99658.66;5111034;28;20257;-66
2023/10/18 04:19:07;;;;;;;1.57;1.43;;;;;;;13.05;100.00;99657.75;5109958;28;20191;-65
2023/10/18 04:21:36;;;;;;;2.10;2.00;;;;;;;13.05;100.00;99659.50;5110426;27;20221;-66
2023/10/18 04:24:04;;;;;;;2.07;1.97;;;;;;;13.04;100.00;99662.97;5110434;28;20668;-66
2023/10/18 04:26:31;;;;;;;1.90;1.50;;;;;;;13.02;100.00;99654.47;5110872;28;20294;-66
2023/10/18 04:29:01;;;;;;;2.60;2.40;;;;;;;13.02;100.00;99664.78;5107182;28;20656;-66
2023/10/18 04:31:29;;;;;;;2.47;2.37;;;;;;;13.03;100.00;99669.00;5110514;28;20305;-66
2023/10/18 04:33:57;;;;;;;2.10;2.00;;;;;;;12.99;100.00;99675.16;5106401;27;20230;-65
2023/10/18 04:36:25;;;;;;;1.90;1.80;;;;;;;12.97;100.00;99672.63;5109809;28;20199;-66
2023/10/18 04:38:52;;;;;;;2.27;2.17;;;;;;;12.97;100.00;99666.66;5110541;28;20202;-66
2023/10/18 04:41:28;;;;;;;2.23;2.13;;;;;;;12.97;100.00;99670.06;5111804;28;20809;-66
2023/10/18 04:44:05;;;;;;;1.87;1.77;;;;;;;12.90;100.00;99662.59;5103309;28;20205;-66
2023/10/18 04:46:33;;;;;;;1.87;1.77;;;;;;;12.96;100.00;99670.09;5092052;28;20228;-66
2023/10/18 04:49:16;;;;;;;1.90;1.80;;;;;;;12.96;100.00;99672.69;5097177;28;20199;-66
2023/10/18 04:51:45;;;;;;;1.90;1.80;;;;;;;12.96;100.00;99668.38;5108592;28;20243;-62
2023/10/18 04:54:15;;;;;;;2.10;2.03;;;;;;;12.97;100.00;99676.94;5100246;28;20201;-62
2023/10/18 04:56:44;;;;;;;1.87;1.77;;;;;;;12.98;100.00;99683.78;5102073;28;20199;-62
2023/10/18 04:59:11;;;;;;;1.97;1.87;;;;;;;13.00;100.00;99676.84;5103558;28;20633;-61
2023/10/18 05:01:42;;;;;;;1.80;1.80;;;;;;;12.99;100.00;99681.13;5103879;28;20195;-62
2023/10/18 05:04:24;;;;;;;2.67;2.47;;;;;;;13.03;100.00;99676.72;5104389;28;20251;-63
2023/10/18 05:06:54;;;;;;;1.80;1.70;;;;;;;13.04;100.00;99675.84;5102845;28;20198;-61
2023/10/18 05:09:29;;;;;;;1.43;1.33;;;;;;;13.06;100.00;99671.47;5103922;28;20624;-61
2023/10/18 05:11:57;;;;;;;2.13;2.03;;;;;;;12.98;100.00;99660.63;5103864;28;20705;-61
2023/10/18 05:14:40;;;;;;;2.30;2.20;;;;;;;13.06;100.00;99682.59;5109708;28;20196;-61
2023/10/18 05:17:21;;;;;;;1.20;1.20;;;;;;;13.07;100.00;99678.31;5116369;27;20794;-61
2023/10/18 05:19:50;;;;;;;3.00;2.80;;;;;;;13.05;100.00;99683.47;5108313;28;20583;-62
2023/10/18 05:22:20;;;;;;;1.10;1.10;;;;;;;13.07;100.00;99688.59;5106081;28;20197;-62
2023/10/18 05:24:55;;;;;;;1.80;1.80;;;;;;;13.04;100.00;99684.41;5098481;28;20202;-62
2023/10/18 05:27:25;;;;;;;1.87;1.80;;;;;;;13.03;100.00;99692.16;5113673;27;20202;-62
2023/10/18 05:29:57;;;;;;;2.17;2.07;;;;;;;13.03;100.00;99703.31;5110696;27;20195;-62
2023/10/18 05:32:38;;;;;;;2.73;2.50;;;;;;;13.03;100.00;99703.31;5099079;28;20639;-62
2023/10/18 05:35:20;;;;;;;4.47;1.93;;;;;;;12.96;100.00;99685.53;5105604;27;20283;-61
2023/10/18 05:37:58;;;;;;;1.73;1.63;;;;;;;13.02;100.00;99695.66;5100331;28;20250;-61
2023/10/18 05:43:22;;;;;;;1.70;1.60;;;;;;;13.04;100.00;99697.28;5102068;28;20208;-62
2023/10/18 05:45:49;;;;;;;1.33;1.33;;;;;;;13.06;100.00;99692.06;5111562;28;20207;-61
2023/10/18 05:48:18;;;;;;;1.40;1.40;;;;;;;13.10;100.00;99693.66;5106309;27;20667;-61
2023/10/18 05:50:49;;;;;;;2.63;2.53;;;;;;;13.11;100.00;99711.63;5107690;28;20219;-62
2023/10/18 05:53:18;;;;;;;2.20;1.80;;;;;;;13.13;100.00;99719.28;5096691;27;20703;-61
2023/10/18 05:55:52;;;;;;;1.80;1.70;;;;;;;13.13;100.00;99719.28;5104213;28;20248;-63
2023/10/18 05:58:25;;;;;;;2.13;2.03;;;;;;;13.05;100.00;99700.69;5103719;28;20203;-63
2023/10/18 06:00:53;;;;;;;1.40;1.40;;;;;;;13.16;100.00;99719.19;5101926;28;20197;-62
2023/10/18 06:03:22;;;;;;;1.70;1.60;;;;;;;13.11;100.00;99715.94;5105000;27;20203;-63
2023/10/18 06:05:53;;;;;;;2.40;2.30;;;;;;;13.03;100.00;99713.59;5104370;28;20245;-63
2023/10/18 06:08:22;;;;;;;2.43;2.23;;;;;;;13.04;100.00;99712.72;5108977;28;20203;-63
2023/10/18 06:10:50;;;;;;;1.70;1.60;;;;;;;13.05;100.00;99710.97;5101884;27;20309;-62
2023/10/18 06:13:22;;;;;;;1.70;1.60;;;;;;;12.77;100.00;99679.38;5102000;27;20220;-62
2023/10/18 06:15:50;;;;;;;1.63;1.53;;;;;;;13.07;100.00;99716.91;5110107;27;20220;-63
2023/10/18 06:18:22;;;;;;;1.83;1.73;;;;;;;13.04;100.00;99699.84;5107118;27;20588;-63
2023/10/18 06:20:52;;;;;;;4.10;2.53;;;;;;;13.14;100.00;99726.97;5101859;28;20267;-63
2023/10/18 06:23:36;;;;;;;1.73;1.63;;;;;;;13.14;100.00;99731.28;5100753;28;20202;-63
2023/10/18 06:26:27;;;;;;;1.70;1.60;;;;;;;13.14;100.00;99739.00;5115554;27;20671;-64
2023/10/18 06:29:00;;;;;;;1.30;1.30;;;;;;;13.12;100.00;99736.47;5104057;28;20666;-64
2023/10/18 06:31:28;;;;;;;1.77;1.73;;;;;;;13.11;100.00;99726.25;5107743;28;20648;-63
2023/10/18 06:33:56;;;;;;;1.33;1.33;;;;;;;13.16;100.00;99739.78;5109155;27;20223;-63
2023/10/18 06:36:25;;;;;;;2.40;2.30;;;;;;;13.19;100.00;99729.38;5108086;28;20238;-63
2023/10/18 06:38:52;;;;;;;3.50;2.77;;;;;;;13.22;100.00;99734.41;5105394;28;20291;-63
2023/10/18 06:41:20;;;;;;;2.60;2.40;;;;;;;13.27;100.00;99741.97;5105911;27;20285;-64
2023/10/18 06:43:47;;;;;;;2.40;2.17;;;;;;;13.28;100.00;99729.03;5105308;28;20224;-62
2023/10/18 06:46:22;;;;;;;1.77;1.67;;;;;;;13.32;100.00;99735.75;5112773;27;20206;-63
2023/10/18 06:48:51;;;;;;;1.67;1.57;;;;;;;13.38;100.00;99732.97;5111695;28;20739;-62
2023/10/18 06:51:26;;;;;;;1.70;1.70;;;;;;;13.05;100.00;99680.91;5110511;28;20237;-62
2023/10/18 06:53:55;;;;;;;1.73;1.40;;;;;;;13.08;100.00;99680.00;5102566;28;20202;-62
2023/10/18 06:56:22;;;;;;;1.67;1.57;;;;;;;13.44;100.00;99729.34;5106515;27;20251;-62
2023/10/18 06:58:49;;;;;;;1.60;1.50;;;;;;;13.48;100.00;99736.88;5107712;28;20203;-61
2023/10/18 07:01:20;;;;;;;1.47;1.47;;;;;;;13.56;100.00;99740.03;5103697;28;20230;-61
2023/10/18 07:03:48;;;;;;;1.10;1.10;;;;;;;13.61;100.00;99738.13;5104180;28;20208;-62
2023/10/18 07:06:18;;;;;;;2.20;2.00;;;;;;;13.64;100.00;99732.84;5109362;28;20201;-62
2023/10/18 07:08:45;;;;;;;1.10;1.10;;;;;;;13.68;100.00;99737.00;5103176;28;20202;-62
2023/10/18 07:11:17;;;;;;;1.43;1.33;;;;;;;13.75;100.00;99749.66;5104951;28;20215;-62
2023/10/18 07:13:47;;;;;;;1.00;1.00;;;;;;;13.71;100.00;99740.34;5101437;28;20559;-62
2023/10/18 07:16:15;;;;;;;1.40;1.40;;;;;;;13.81;100.00;99759.72;5109323;28;20655;-61
2023/10/18 07:18:44;;;;;;;2.17;1.90;;;;;;;13.85;100.00;99751.00;5107469;28;20198;-62
2023/10/18 07:21:18;;;;;;;1.57;1.57;;;;;;;13.87;100.00;99755.19;5109394;28;20206;-62
2023/10/18 07:23:53;;;;;;;1.47;1.47;;;;;;;13.83;100.00;99734.75;5102985;28;20254;-61
2023/10/18 07:26:22;;;;;;;1.20;1.20;;;;;;;13.98;100.00;99753.03;5097184;28;20587;-61
2023/10/18 07:28:49;;;;;;;1.50;1.50;;;;;;;14.05;100.00;99743.34;5100221;28;20227;-62
2023/10/18 07:31:17;;;;;;;1.70;1.70;;;;;;;14.06;100.00;99747.56;5098703;28;20214;-63
2023/10/18 07:33:45;;;;;;;1.10;1.10;;;;;;;14.05;100.00;99743.34;5094921;28;20208;-62
2023/10/18 07:36:13;;;;;;;1.63;1.53;;;;;;;14.14;100.00;99745.56;5098234;28;20307;-63
2023/10/18 07:38:47;;;;;;;1.57;1.57;;;;;;;14.15;100.00;99747.25;5107073;28;20202;-62
2023/10/18 07:41:14;;;;;;;1.37;1.37;;;;;;;14.18;100.00;99749.69;5099106;28;20208;-62
2023/10/18 07:43:44;;;;;;;1.00;1.00;;;;;;;14.23;100.00;99750.34;5102438;28;20206;-63
2023/10/18 07:46:16;;;;;;;1.43;1.43;;;;;;;14.19;100.00;99756.50;5097489;28;20297;-63
2023/10/18 07:48:47;;;;;;;2.13;2.03;;;;;;;14.15;100.00;99749.81;5106427;28;20687;-61
2023/10/18 07:51:23;;;;;;;1.63;1.53;;;;;;;14.21;100.00;99754.72;5107346;28;20258;-62
2023/10/18 07:53:51;;;;;;;2.07;1.40;;;;;;;14.19;100.00;99764.25;5101621;28;20199;-61
2023/10/18 07:56:17;;;;;;;1.67;1.67;;;;;;;14.23;100.00;99755.50;5103768;27;20309;-61
2023/10/18 07:58:53;;;;;;;2.10;1.80;;;;;;;14.29;100.00;99747.53;5097139;27;20256;-62
2023/10/18 08:01:46;;;;;;;1.83;1.80;;;;;;;14.36;100.00;99743.00;5100643;27;20670;-62
2023/10/18 08:04:09;;;;;;;1.40;1.40;;;;;;;14.38;100.00;99747.19;5099421;28;20208;-62
2023/10/18 08:06:39;;;;;;;2.00;1.90;;;;;;;14.41;100.00;99751.41;5107587;28;20655;-61
2023/10/18 08:09:06;;;;;;;1.53;1.53;;;;;;;14.50;100.00;99751.88;5100139;28;20203;-62
2023/10/18 08:11:34;;;;;;;7.23;2.13;;;;;;;14.56;100.00;99751.63;5103239;28;20217;-63
2023/10/18 08:14:09;;;;;;;1.90;1.90;;;;;;;14.66;100.00;99750.34;5094975;28;20212;-61
2023/10/18 08:16:44;;;;;;;2.03;1.93;;;;;;;14.69;100.00;99745.06;5099202;28;20304;-62
2023/10/18 08:19:11;;;;;;;1.70;1.60;;;;;;;14.73;100.00;99746.56;5102129;28;20233;-62
2023/10/18 08:21:39;;;;;;;4.10;2.60;;;;;;;14.75;100.00;99745.69;5101412;28;20200;-63
2023/10/18 08:24:19;;;;;;;2.57;2.37;;;;;;;14.87;100.00;99750.31;5101050;28;20221;-62
2023/10/18 08:26:51;;;;;;;2.87;2.77;;;;;;;14.97;100.00;99749.03;5102346;28;20208;-62
2023/10/18 08:29:19;;;;;;;2.10;2.00;;;;;;;14.91;100.00;99754.47;5099804;28;20623;-63
2023/10/18 08:31:55;;;;;;;2.50;2.40;;;;;;;14.87;100.00;99760.66;5106917;28;20213;-62
2023/10/18 08:34:23;;;;;;;2.77;2.67;;;;;;;14.98;100.00;99754.16;5099311;28;20295;-63
2023/10/18 08:36:55;;;;;;;2.23;2.13;;;;;;;15.12;100.00;99753.56;5103794;28;20577;-62
2023/10/18 08:39:25;;;;;;;2.93;2.30;;;;;;;15.15;100.00;99761.19;5099459;28;20691;-62
2023/10/18 08:42:02;;;;;;;2.43;2.33;;;;;;;15.18;100.00;99756.72;5098905;28;20286;-62
2023/10/18 08:44:32;;;;;;;1.77;1.70;;;;;;;15.23;100.00;99761.69;5101480;28;20203;-62
2023/10/18 08:47:11;;;;;;;1.77;1.77;;;;;;;15.20;100.00;99759.22;5108018;28;20253;-62
2023/10/18 08:49:45;;;;;;;2.57;2.47;;;;;;;15.21;100.00;99766.94;5105879;28;20211;-62
2023/10/18 08:52:16;;;;;;;2.50;2.40;;;;;;;15.33;100.00;99762.97;5110880;28;20311;-62
2023/10/18 08:54:45;;;;;;;2.57;1.93;;;;;;;15.43;100.00;99763.41;5105627;28;20199;-63
2023/10/18 08:57:14;;;;;;;2.50;2.40;;;;;;;15.49;100.00;99766.59;5110654;28;20253;-62
2023/10/18 08:59:50;;;;;;;2.13;2.10;;;;;;;15.42;100.00;99775.47;5107028;28;20214;-63
2023/10/18 09:02:22;;;;;;;2.57;2.33;;;;;;;15.43;100.00;99776.31;5096010;28;20639;-63
2023/10/18 09:04:52;;;;;;;1.67;1.67;;;;;;;15.47;100.00;99783.88;5100929;28;20205;-63
2023/10/18 09:07:21;;;;;;;2.23;2.13;;;;;;;15.53;100.00;99778.47;5106368;28;20205;-63
2023/10/18 09:09:55;;;;;;;2.13;2.03;;;;;;;15.67;100.00;99783.84;5098528;28;20199;-63
2023/10/18 09:12:36;;;;;;;1.50;1.50;;;;;;;15.74;100.00;99777.50;5102675;28;20210;-62
2023/10/18 09:17:46;;;;;;;1.50;1.50;;;;;;;15.68;100.00;99770.03;5103944;28;20190;-63
2023/10/18 09:20:15;;;;;;;2.30;2.20;;;;;;;15.79;100.00;99773.88;5101397;28;20195;-62
2023/10/18 09:22:45;;;;;;;2.20;2.10;;;;;;;15.93;100.00;99774.09;5104202;28;20187;-62
2023/10/18 09:25:13;;;;;;;1.40;1.40;;;;;;;15.91;100.00;99760.38;5114666;28;20194;-63
2023/10/18 09:27:40;;;;;;;1.50;1.50;;;;;;;16.09;100.00;99782.81;5111973;27;20286;-63
2023/10/18 09:30:13;;;;;;;2.27;1.47;;;;;;;16.14;99.76;99786.00;5103623;28;20198;-63
2023/10/18 09:32:40;;;;;;;2.00;1.90;;;;;;;15.99;100.00;99745.34;5106364;28;20254;-63
2023/10/18 09:35:08;;;;;;;2.23;2.13;;;;;;;16.14;100.00;99768.75;5110615;28;20194;-63
2023/10/18 09:37:36;;;;;;;2.10;2.00;;;;;;;16.25;100.00;99769.06;5112039;28;20562;-63
2023/10/18 09:40:04;;;;;;;1.77;1.77;;;;;;;16.22;99.52;99776.13;5109381;27;20256;-63
2023/10/18 09:42:31;;;;;;;1.80;1.70;;;;;;;16.11;97.89;99770.63;5106217;27;20206;-63
2023/10/18 09:44:59;;;;;;;1.97;1.87;;;;;;;16.18;97.66;99766.84;5112565;28;20203;-63
2023/10/18 09:47:28;;;;;;;2.97;2.87;;;;;;;16.22;98.36;99768.38;5110952;27;20662;-63
2023/10/18 09:49:57;;;;;;;2.20;2.10;;;;;;;16.26;99.72;99759.56;5107102;27;20221;-63
2023/10/18 09:52:25;;;;;;;2.00;1.90;;;;;;;16.21;96.55;99757.22;5111277;27;20762;-64
2023/10/18 09:54:58;;;;;;;1.77;1.67;;;;;;;16.23;97.83;99754.53;5112030;28;20205;-63
2023/10/18 09:57:26;;;;;;;1.83;1.73;;;;;;;16.35;97.30;99758.31;5106184;28;20578;-62
2023/10/18 09:59:55;;;;;;;1.63;1.63;;;;;;;16.38;98.20;99758.16;5112704;27;20206;-62
2023/10/18 10:02:23;;;;;;;1.87;1.77;;;;;;;16.52;97.83;99755.72;5105655;27;20658;-63
2023/10/18 10:04:53;;;;;;;1.77;1.70;;;;;;;16.60;98.56;99746.72;5105126;28;20253;-63
2023/10/18 10:07:39;;;;;;;1.50;1.50;;;;;;;16.63;98.02;99743.97;5111170;28;20199;-63
2023/10/18 10:10:17;;;;;;;2.17;2.07;;;;;;;16.74;98.73;99746.00;5104652;28;20214;-63
2023/10/18 10:12:46;;;;;;;1.40;1.40;;;;;;;16.84;96.82;99744.63;5106252;28;20218;-63
2023/10/18 10:15:17;;;;;;;1.13;1.13;;;;;;;16.80;94.20;99756.91;5110828;27;20199;-63
2023/10/18 10:17:56;;;;;;;1.33;1.33;;;;;;;16.65;92.03;99742.13;5105846;27;20203;-62
2023/10/18 10:20:31;;;;;;;1.33;1.33;;;;;;;16.59;91.26;99745.03;5107594;27;20225;-63
2023/10/18 10:23:02;;;;;;;2.80;1.40;;;;;;;16.63;91.86;99738.81;5102811;28;20645;-63
2023/10/18 10:25:32;;;;;;;2.63;1.50;;;;;;;16.78;91.72;99737.19;5109662;28;20215;-62
2023/10/18 10:28:01;;;;;;;1.90;1.80;;;;;;;16.90;94.07;99741.75;5102165;28;20234;-63
2023/10/18 10:30:37;;;;;;;1.97;1.87;;;;;;;17.03;95.77;99741.94;5104463;28;20207;-63
2023/10/18 10:33:10;;;;;;;2.20;1.73;;;;;;;17.11;93.27;99737.22;5108135;28;20691;-62
2023/10/18 10:35:45;;;;;;;1.50;1.50;;;;;;;17.08;92.04;99729.63;5112699;27;20207;-63
2023/10/18 10:38:18;;;;;;;2.20;2.10;;;;;;;17.11;92.06;99734.66;5106201;27;20210;-63
2023/10/18 10:40:49;;;;;;;2.07;1.90;;;;;;;17.13;92.42;99737.97;5096054;28;20234;-62
2023/10/18 10:43:19;;;;;;;2.30;2.20;;;;;;;17.16;91.09;99732.63;5103668;28;20654;-63
2023/10/18 10:45:54;;;;;;;2.30;2.10;;;;;;;17.13;90.38;99730.22;5103763;27;20920;-65
2023/10/18 10:48:36;;;;;;;1.90;1.80;;;;;;;17.21;90.19;99723.72;5111191;28;20689;-66
2023/10/18 10:51:13;;;;;;;1.97;1.87;;;;;;;17.28;88.42;99716.47;5109725;28;20570;-65
2023/10/18 10:53:48;;;;;;;1.77;1.67;;;;;;;17.34;90.40;99726.53;5111119;28;20305;-65
2023/10/18 10:56:19;;;;;;;1.93;1.53;;;;;;;17.35;91.42;99717.81;5104563;28;20677;-65
2023/10/18 10:58:54;;;;;;;1.77;1.70;;;;;;;17.36;92.90;99716.06;5108158;28;20278;-66
2023/10/18 11:01:31;;;;;;;2.10;2.00;;;;;;;17.31;90.82;99716.31;5111440;28;20204;-65
2023/10/18 11:03:59;;;;;;;1.53;1.43;;;;;;;17.35;88.90;99711.81;5109041;28;20201;-65
2023/10/18 11:06:32;;;;;;;2.30;2.20;;;;;;;17.35;88.16;99711.81;5112183;28;20286;-66
2023/10/18 11:08:59;;;;;;;2.03;1.93;;;;;;;17.49;87.40;99707.56;5111517;28;20260;-65
2023/10/18 11:11:27;;;;;;;1.97;1.97;;;;;;;17.61;86.88;99700.94;5112753;28;20711;-66
2023/10/18 11:13:54;;;;;;;2.80;2.27;;;;;;;17.67;90.99;99693.63;5112191;28;20200;-65
2023/10/18 11:16:21;;;;;;;3.43;3.13;;;;;;;17.60;89.16;99694.91;5110737;28;20230;-66
2023/10/18 11:18:49;;;;;;;2.90;2.73;;;;;;;17.66;90.77;99691.97;5104120;28;20249;-65
2023/10/18 11:21:21;;;;;;;1.80;1.70;;;;;;;17.66;89.00;99688.53;5111939;28;20237;-66
2023/10/18 11:23:56;;;;;;;2.50;2.27;;;;;;;17.59;88.83;99690.63;5112189;28;20238;-65
2023/10/18 11:26:25;;;;;;;2.60;2.37;;;;;;;17.62;89.15;99680.09;5111267;28;20206;-65
2023/10/18 11:28:56;;;;;;;2.57;2.47;;;;;;;17.61;91.17;99680.19;5112329;28;20555;-65
2023/10/18 11:31:27;;;;;;;2.77;2.67;;;;;;;17.33;89.68;99662.63;5112393;28;20203;-65
2023/10/18 11:33:59;;;;;;;3.27;3.13;;;;;;;17.44;91.53;99680.22;5111690;28;20254;-66
2023/10/18 11:36:28;;;;;;;3.87;3.43;;;;;;;17.48;91.47;99674.75;5110707;28;20290;-65
2023/10/18 11:39:18;;;;;;;2.93;2.57;;;;;;;17.63;91.13;99676.59;5111817;28;20196;-66
2023/10/18 11:41:48;;;;;;;3.50;3.30;;;;;;;17.58;90.02;99681.16;5111611;28;20260;-66
2023/10/18 11:44:27;;;;;;;3.33;3.23;;;;;;;17.49;89.00;99663.50;5111179;28;20644;-65
2023/10/18 11:47:01;;;;;;;3.43;3.13;;;;;;;17.62;89.96;99674.91;5111507;28;20201;-65
2023/10/18 11:49:35;;;;;;;3.70;3.40;;;;;;;17.76;90.44;99663.78;5104484;28;20690;-66